Time;durP1;ratioP1;P1;durP2;ratioP2;P2;SDS_P1;SDS_P2;PMS_P1;PMS_P2;Temp;Humidity;BMP_temperature;BMP_pressure;BME280_temperature;BME280_humidity;BME280_pressure;Samples;Min_cycle;Max_cycle;Signal;HPM_P1;HPM_P2
2023/07/18 00:01:15;;;;;;;3.50;3.20;;;19.20;1.00;;;;;;5135819;27;20221;-50
2023/07/18 00:03:41;;;;;;;3.43;2.40;;;19.20;1.00;;;;;;5136615;27;20454;-50
2023/07/18 00:06:06;;;;;;;3.93;2.70;;;19.20;1.00;;;;;;5135853;27;20803;-49
2023/07/18 00:08:32;;;;;;;3.83;2.53;;;19.10;1.00;;;;;;5136339;27;20641;-48
2023/07/18 00:10:58;;;;;;;3.63;2.60;;;19.10;1.00;;;;;;5135906;27;20198;-50
2023/07/18 00:13:24;;;;;;;4.23;3.70;;;19.10;1.00;;;;;;5136552;28;20179;-48
2023/07/18 00:15:49;;;;;;;4.17;2.57;;;19.00;1.00;;;;;;5136097;28;20175;-47
2023/07/18 00:18:15;;;;;;;3.13;2.47;;;19.00;1.00;;;;;;5134559;28;20495;-47
2023/07/18 00:20:41;;;;;;;3.43;2.80;;;19.10;1.00;;;;;;5134619;28;20187;-47
2023/07/18 00:23:10;;;;;;;3.40;3.10;;;19.10;1.00;;;;;;5135821;28;20193;-47
2023/07/18 00:25:36;;;;;;;3.00;2.50;;;19.10;1.00;;;;;;5134730;28;20420;-46
2023/07/18 00:28:03;;;;;;;2.77;2.30;;;19.00;1.00;;;;;;5136487;28;20405;-48
2023/07/18 00:30:30;;;;;;;2.93;2.53;;;19.00;1.00;;;;;;5136505;28;20604;-48
2023/07/18 00:32:58;;;;;;;5.67;3.40;;;18.90;1.00;;;;;;5100879;28;20858;-48
2023/07/18 00:35:26;;;;;;;3.63;1.87;;;18.90;1.00;;;;;;5135859;28;20515;-48
2023/07/18 00:37:52;;;;;;;2.93;2.63;;;18.80;1.00;;;;;;5136494;28;20522;-47
2023/07/18 00:40:18;;;;;;;3.03;2.60;;;18.70;1.00;;;;;;5117071;28;20416;-48
2023/07/18 00:42:47;;;;;;;5.20;2.90;;;18.70;1.00;;;;;;5135735;28;20271;-48
2023/07/18 00:45:13;;;;;;;2.90;2.60;;;18.70;1.00;;;;;;5117863;27;20690;-50
2023/07/18 00:47:41;;;;;;;3.60;2.40;;;18.70;1.00;;;;;;5138385;27;20520;-50
2023/07/18 00:50:09;;;;;;;3.50;2.60;;;18.70;1.00;;;;;;5139080;27;20710;-48
2023/07/18 00:52:37;;;;;;;3.10;2.33;;;18.60;1.00;;;;;;5138562;27;20675;-50
2023/07/18 00:55:03;;;;;;;2.80;2.50;;;18.60;1.00;;;;;;5138482;27;20465;-48
2023/07/18 00:57:30;;;;;;;4.50;2.43;;;18.60;1.00;;;;;;5139099;27;20420;-50
2023/07/18 00:59:56;;;;;;;3.10;2.53;;;18.60;1.00;;;;;;5140243;27;20468;-48
2023/07/18 01:02:21;;;;;;;3.27;2.30;;;18.60;1.00;;;;;;5139508;27;20511;-51
2023/07/18 01:04:47;;;;;;;3.57;3.17;;;18.60;1.00;;;;;;5139760;27;20493;-47
2023/07/18 01:07:15;;;;;;;5.43;3.10;;;18.60;1.00;;;;;;5139748;27;20187;-48
2023/07/18 01:09:41;;;;;;;3.70;2.57;;;18.50;1.00;;;;;;5139857;27;20748;-50
2023/07/18 01:12:07;;;;;;;3.37;2.23;;;18.50;1.00;;;;;;5139635;27;20429;-47
2023/07/18 01:14:33;;;;;;;3.47;2.50;;;18.50;1.00;;;;;;5139470;27;20254;-48
2023/07/18 01:16:58;;;;;;;3.07;2.20;;;18.50;1.00;;;;;;5138682;27;20593;-48
2023/07/18 01:19:24;;;;;;;3.10;2.50;;;18.50;1.00;;;;;;5119805;27;20487;-46
2023/07/18 01:21:49;;;;;;;3.47;2.87;;;18.50;1.00;;;;;;5138412;27;20276;-49
2023/07/18 01:24:15;;;;;;;3.10;2.03;;;18.40;1.00;;;;;;5137374;27;20175;-49
2023/07/18 01:26:41;;;;;;;3.00;2.70;;;18.40;1.00;;;;;;5136872;27;20179;-46
2023/07/18 01:29:08;;;;;;;4.97;2.93;;;18.40;1.00;;;;;;5137495;27;20179;-47
2023/07/18 01:31:34;;;;;;;3.13;2.83;;;18.40;7.00;;;;;;5137292;27;20171;-50
2023/07/18 01:33:59;;;;;;;5.43;2.90;;;18.40;15.90;;;;;;5137862;27;20483;-49
2023/07/18 01:36:28;;;;;;;4.17;2.70;;;18.30;24.60;;;;;;5137995;27;20194;-48
2023/07/18 01:38:54;;;;;;;4.00;2.57;;;18.20;36.20;;;;;;5137645;27;20584;-50
2023/07/18 01:41:20;;;;;;;3.20;2.67;;;18.20;45.60;;;;;;5138883;27;20457;-47
2023/07/18 01:43:45;;;;;;;5.20;3.10;;;18.20;58.20;;;;;;5118576;27;20836;-49
2023/07/18 01:46:11;;;;;;;3.97;2.87;;;18.10;81.70;;;;;;5136572;27;20172;-48
2023/07/18 01:48:38;;;;;;;3.33;2.30;;;18.10;96.30;;;;;;5137486;27;20266;-47
2023/07/18 01:51:04;;;;;;;3.20;2.80;;;18.10;99.90;;;;;;5138420;27;20677;-47
2023/07/18 01:53:29;;;;;;;2.70;2.27;;;18.00;99.90;;;;;;5138417;27;20444;-48
2023/07/18 01:55:58;;;;;;;3.67;2.60;;;18.00;99.90;;;;;;5138202;27;20242;-50
2023/07/18 01:58:24;;;;;;;3.90;2.30;;;18.00;99.90;;;;;;5137600;27;20224;-51
2023/07/18 02:00:49;;;;;;;2.90;2.13;;;18.00;99.90;;;;;;5139085;27;20517;-49
2023/07/18 02:03:15;;;;;;;3.27;2.20;;;18.00;99.90;;;;;;5138874;27;20469;-49
2023/07/18 02:05:41;;;;;;;3.77;2.67;;;18.00;99.90;;;;;;5138659;27;20187;-49
2023/07/18 02:08:06;;;;;;;3.93;2.53;;;18.00;99.90;;;;;;5138588;27;20526;-51
2023/07/18 02:10:32;;;;;;;3.63;2.60;;;18.00;99.90;;;;;;5138915;27;20654;-48
2023/07/18 02:13:01;;;;;;;3.37;2.57;;;18.00;99.90;;;;;;5119459;27;20183;-48
2023/07/18 02:15:27;;;;;;;4.20;2.77;;;18.00;99.90;;;;;;5138381;27;20460;-48
2023/07/18 02:17:52;;;;;;;3.47;2.73;;;18.00;99.90;;;;;;5137366;27;20524;-47
2023/07/18 02:20:18;;;;;;;4.87;3.17;;;17.90;99.90;;;;;;5137524;27;20262;-48
2023/07/18 02:22:44;;;;;;;3.33;2.70;;;17.90;99.90;;;;;;5137625;27;20232;-49
2023/07/18 02:25:10;;;;;;;3.37;2.50;;;17.90;99.90;;;;;;5137187;27;20175;-46
2023/07/18 02:27:39;;;;;;;4.37;2.57;;;17.90;99.90;;;;;;5137478;27;20417;-49
2023/07/18 02:30:09;;;;;;;4.13;2.67;;;17.90;99.90;;;;;;5120258;27;20187;-49
2023/07/18 02:32:35;;;;;;;4.17;2.80;;;17.80;99.90;;;;;;5138007;27;20432;-50
2023/07/18 02:35:00;;;;;;;3.40;2.70;;;17.90;99.90;;;;;;5137888;27;20427;-47
2023/07/18 02:37:26;;;;;;;3.17;2.30;;;17.80;99.90;;;;;;5138302;27;20446;-49
2023/07/18 02:39:52;;;;;;;3.63;2.90;;;17.80;99.90;;;;;;5137688;27;20335;-48
2023/07/18 02:42:18;;;;;;;4.27;2.80;;;17.80;99.90;;;;;;5138512;27;20424;-51
2023/07/18 02:44:45;;;;;;;3.90;2.80;;;17.80;99.90;;;;;;5137780;27;20564;-50
2023/07/18 02:47:11;;;;;;;2.63;2.37;;;17.70;99.90;;;;;;5137092;27;20302;-47
2023/07/18 02:49:37;;;;;;;2.77;2.47;;;17.70;99.90;;;;;;5136505;27;20555;-48
2023/07/18 02:52:05;;;;;;;2.80;2.43;;;17.70;99.90;;;;;;5137546;27;20240;-49
2023/07/18 02:54:31;;;;;;;4.00;2.90;;;17.70;99.90;;;;;;5136874;27;20183;-50
2023/07/18 02:57:08;;;;;;;3.70;2.83;;;17.70;99.90;;;;;;5137724;27;20451;-49
2023/07/18 02:59:34;;;;;;;4.23;3.10;;;17.70;99.90;;;;;;5134084;27;20603;-46
2023/07/18 03:02:00;;;;;;;3.90;2.70;;;17.70;99.90;;;;;;5137131;27;20489;-48
2023/07/18 03:04:26;;;;;;;3.07;2.77;;;17.60;99.90;;;;;;5135798;27;20183;-50
2023/07/18 03:06:55;;;;;;;3.67;3.03;;;17.60;99.90;;;;;;5137609;27;20175;-47
2023/07/18 03:09:21;;;;;;;5.23;2.73;;;17.60;99.90;;;;;;5135796;27;20396;-49
2023/07/18 03:11:49;;;;;;;4.97;2.57;;;17.60;99.90;;;;;;5135286;27;20408;-48
2023/07/18 03:14:16;;;;;;;3.90;2.80;;;17.60;99.90;;;;;;5135856;27;20542;-45
2023/07/18 03:16:42;;;;;;;3.60;2.40;;;17.60;99.90;;;;;;5117087;27;20503;-50
2023/07/18 03:19:09;;;;;;;5.30;3.17;;;17.50;99.90;;;;;;5134871;27;20570;-47
2023/07/18 03:21:34;;;;;;;3.60;2.70;;;17.50;99.90;;;;;;5135165;27;20175;-48
2023/07/18 03:24:00;;;;;;;3.30;2.43;;;17.50;99.90;;;;;;5136593;27;20412;-49
2023/07/18 03:26:26;;;;;;;3.13;2.67;;;17.50;99.90;;;;;;5116948;27;20187;-48
2023/07/18 03:28:52;;;;;;;2.87;2.57;;;17.50;99.90;;;;;;5135583;27;20186;-47
2023/07/18 03:31:17;;;;;;;2.60;2.40;;;17.40;99.90;;;;;;5136365;27;20425;-48
2023/07/18 03:33:43;;;;;;;4.33;2.63;;;17.40;99.90;;;;;;5135458;27;20432;-50
2023/07/18 03:36:09;;;;;;;5.27;2.60;;;17.30;99.90;;;;;;5127209;27;20202;-46
2023/07/18 03:38:34;;;;;;;3.20;2.70;;;17.30;99.90;;;;;;5115896;28;20656;-52
2023/07/18 03:41:00;;;;;;;8.03;2.83;;;17.30;1.00;;;;;;5115846;28;20190;-48
2023/07/18 03:43:26;;;;;;;3.50;2.67;;;17.30;1.00;;;;;;5115919;28;20271;-49
2023/07/18 03:45:52;;;;;;;4.57;2.70;;;17.30;1.00;;;;;;5115917;28;20180;-47
2023/07/18 03:48:17;;;;;;;3.20;2.50;;;17.30;1.00;;;;;;5115739;28;20171;-48
2023/07/18 03:50:43;;;;;;;4.43;2.50;;;17.30;99.90;;;;;;5114173;28;20827;-51
2023/07/18 03:53:09;;;;;;;3.73;2.93;;;17.30;99.90;;;;;;5113187;28;20445;-52
2023/07/18 03:55:35;;;;;;;3.20;2.63;;;17.30;99.90;;;;;;5112727;28;20434;-51
2023/07/18 03:58:00;;;;;;;4.47;2.53;;;17.30;99.90;;;;;;5112658;28;20250;-51
2023/07/18 04:00:26;;;;;;;3.40;2.90;;;17.30;99.90;;;;;;5112526;28;20210;-53
2023/07/18 04:02:52;;;;;;;5.03;2.70;;;17.30;99.90;;;;;;5111509;28;20168;-53
2023/07/18 04:05:18;;;;;;;4.50;2.90;;;17.30;99.90;;;;;;5112745;28;20472;-53
2023/07/18 04:07:44;;;;;;;2.57;1.90;;;17.30;99.90;;;;;;5111527;28;20602;-53
2023/07/18 04:10:14;;;;;;;4.03;2.53;;;17.40;99.90;;;;;;5111510;28;20425;-52
2023/07/18 04:12:43;;;;;;;2.43;1.87;;;17.50;99.90;;;;;;5109930;28;20429;-53
2023/07/18 04:15:10;;;;;;;3.33;2.80;;;17.50;99.90;;;;;;5110821;28;20409;-53
2023/07/18 04:17:35;;;;;;;4.03;2.43;;;17.50;99.90;;;;;;5112084;28;20426;-54
2023/07/18 04:20:03;;;;;;;3.60;2.40;;;17.60;99.90;;;;;;5113825;28;20461;-55
2023/07/18 04:22:29;;;;;;;2.93;2.23;;;17.60;99.90;;;;;;5099120;28;20241;-54
2023/07/18 04:24:55;;;;;;;3.10;2.20;;;17.70;99.90;;;;;;5117052;28;20530;-51
2023/07/18 04:27:21;;;;;;;3.30;2.33;;;17.70;99.90;;;;;;5118197;28;20263;-52
2023/07/18 04:29:47;;;;;;;4.63;3.03;;;17.70;99.90;;;;;;5117721;28;20491;-52
2023/07/18 04:32:13;;;;;;;4.03;2.53;;;17.80;99.90;;;;;;5117219;28;20839;-51
2023/07/18 04:34:38;;;;;;;3.13;2.53;;;17.70;99.90;;;;;;5117238;28;20597;-52
2023/07/18 04:37:04;;;;;;;2.67;2.40;;;17.70;99.90;;;;;;5117589;28;20270;-56
2023/07/18 04:39:30;;;;;;;4.17;3.20;;;17.80;99.90;;;;;;5122436;27;20556;-54
2023/07/18 04:42:00;;;;;;;2.90;2.37;;;17.80;99.90;;;;;;5121128;27;20536;-54
2023/07/18 04:44:26;;;;;;;3.33;2.70;;;17.80;99.90;;;;;;5137103;27;20179;-51
2023/07/18 04:46:55;;;;;;;4.17;2.53;;;17.90;99.90;;;;;;5119468;27;20877;-52
2023/07/18 04:49:22;;;;;;;3.50;2.67;;;17.90;99.90;;;;;;5118488;27;20193;-54
2023/07/18 04:51:48;;;;;;;5.37;2.70;;;18.00;99.90;;;;;;5131962;27;20508;-50
2023/07/18 04:54:14;;;;;;;2.90;2.57;;;18.00;99.90;;;;;;5137687;27;20408;-51
2023/07/18 04:56:40;;;;;;;2.90;2.57;;;18.10;99.90;;;;;;5136901;27;21106;-55
2023/07/18 04:59:06;;;;;;;6.73;3.00;;;18.20;99.90;;;;;;5121175;27;20285;-56
2023/07/18 05:01:32;;;;;;;6.60;2.50;;;18.30;99.90;;;;;;5136602;27;20551;-53
2023/07/18 05:03:58;;;;;;;2.50;2.30;;;18.30;99.90;;;;;;5136206;27;20455;-55
2023/07/18 05:06:24;;;;;;;5.90;2.53;;;18.40;99.90;;;;;;5119139;27;20202;-53
2023/07/18 05:08:53;;;;;;;3.50;2.30;;;18.50;99.90;;;;;;5139893;27;20428;-51
2023/07/18 05:11:19;;;;;;;3.53;2.77;;;18.50;99.90;;;;;;5120046;27;20508;-51
2023/07/18 05:13:44;;;;;;;5.70;2.70;;;18.60;99.90;;;;;;5136726;27;20846;-51
2023/07/18 05:16:10;;;;;;;5.20;3.53;;;18.70;99.90;;;;;;5137729;27;20574;-54
2023/07/18 05:18:36;;;;;;;4.90;3.10;;;18.70;99.90;;;;;;5137278;27;20199;-54
2023/07/18 05:21:02;;;;;;;3.70;2.43;;;18.80;84.70;;;;;;5137872;27;20270;-54
2023/07/18 05:23:27;;;;;;;3.27;2.50;;;18.80;73.00;;;;;;5137383;27;20182;-51
2023/07/18 05:25:56;;;;;;;5.60;3.03;;;18.80;61.60;;;;;;5136513;27;20182;-54
2023/07/18 05:28:22;;;;;;;3.97;2.60;;;18.90;58.60;;;;;;5134724;27;20221;-52
2023/07/18 05:30:47;;;;;;;3.17;2.53;;;18.90;49.20;;;;;;5134448;27;20435;-52
2023/07/18 05:33:13;;;;;;;3.33;2.80;;;19.00;39.70;;;;;;5117283;27;20743;-53
2023/07/18 05:35:39;;;;;;;5.57;3.20;;;19.10;30.00;;;;;;5134868;27;20425;-54
2023/07/18 05:38:05;;;;;;;3.10;2.63;;;19.20;22.30;;;;;;5134933;27;20591;-55
2023/07/18 05:40:30;;;;;;;3.13;2.67;;;19.30;13.40;;;;;;5136312;27;20471;-52
2023/07/18 05:42:56;;;;;;;3.57;2.97;;;19.40;7.40;;;;;;5133271;27;20608;-53
2023/07/18 05:45:22;;;;;;;6.40;3.17;;;19.40;1.00;;;;;;5134130;27;20235;-53
2023/07/18 05:47:47;;;;;;;5.20;2.60;;;19.60;1.00;;;;;;5129993;27;20195;-53
2023/07/18 05:50:13;;;;;;;6.37;2.93;;;19.60;1.00;;;;;;5114885;27;20187;-56
2023/07/18 05:52:39;;;;;;;8.23;3.33;;;19.70;1.00;;;;;;5113821;28;20218;-53
2023/07/18 05:55:05;;;;;;;6.97;3.00;;;19.80;1.00;;;;;;5113608;28;20849;-53
2023/07/18 05:57:31;;;;;;;4.67;2.67;;;19.80;1.00;;;;;;5115357;28;20228;-52
2023/07/18 05:59:57;;;;;;;3.97;3.10;;;19.90;1.00;;;;;;5120598;27;20558;-56
2023/07/18 06:02:22;;;;;;;3.90;2.60;;;20.00;1.00;;;;;;5135052;27;20197;-54
2023/07/18 06:04:48;;;;;;;3.33;2.47;;;20.10;1.00;;;;;;5134705;27;20179;-53
2023/07/18 06:07:15;;;;;;;2.60;2.37;;;20.20;1.00;;;;;;5133528;27;20446;-56
2023/07/18 06:09:42;;;;;;;3.97;2.80;;;20.30;1.00;;;;;;5132869;27;20183;-55
2023/07/18 06:12:08;;;;;;;3.40;3.10;;;20.40;1.00;;;;;;5134299;27;20427;-52
2023/07/18 06:14:33;;;;;;;3.83;2.87;;;20.50;1.00;;;;;;5134497;27;20481;-56
2023/07/18 06:16:59;;;;;;;4.57;3.13;;;20.50;1.00;;;;;;5135227;27;20416;-54
2023/07/18 06:19:25;;;;;;;5.67;3.17;;;20.60;1.00;;;;;;5135669;27;20214;-55
2023/07/18 06:21:51;;;;;;;4.93;2.60;;;20.70;1.00;;;;;;5137021;27;20270;-55
2023/07/18 06:24:16;;;;;;;4.20;2.50;;;20.90;1.00;;;;;;5137962;27;20239;-54
2023/07/18 06:26:48;;;;;;;5.17;3.07;;;20.90;1.00;;;;;;5118322;27;20193;-55
2023/07/18 06:29:17;;;;;;;3.73;2.63;;;21.10;1.00;;;;;;5136114;27;20179;-56
2023/07/18 06:31:46;;;;;;;3.73;2.30;;;21.10;1.00;;;;;;5134510;27;20440;-54
2023/07/18 06:34:12;;;;;;;3.40;2.10;;;21.30;1.00;;;;;;5135093;27;20532;-51
2023/07/18 06:36:38;;;;;;;6.00;2.23;;;21.30;1.00;;;;;;5137085;27;20448;-52
2023/07/18 06:39:05;;;;;;;4.90;2.30;;;21.50;1.00;;;;;;5135032;27;20206;-54
2023/07/18 06:41:32;;;;;;;2.73;1.83;;;21.50;1.00;;;;;;5134401;27;20189;-53
2023/07/18 06:43:58;;;;;;;3.77;2.63;;;21.50;1.00;;;;;;5115081;27;20421;-53
2023/07/18 06:46:24;;;;;;;2.80;1.63;;;21.50;1.00;;;;;;5133449;27;20469;-53
2023/07/18 06:48:49;;;;;;;2.93;1.80;;;21.70;1.00;;;;;;5132206;27;20189;-52
2023/07/18 06:51:15;;;;;;;2.70;1.83;;;21.80;1.00;;;;;;5133147;27;20417;-51
2023/07/18 06:53:41;;;;;;;3.10;2.53;;;21.90;1.00;;;;;;5115631;27;20187;-54
2023/07/18 06:56:06;;;;;;;3.97;2.30;;;22.00;1.00;;;;;;5134764;27;20514;-50
2023/07/18 06:58:32;;;;;;;6.27;1.80;;;21.80;1.00;;;;;;5134884;27;20497;-54
2023/07/18 07:00:57;;;;;;;3.70;2.20;;;21.80;1.00;;;;;;5131947;27;20187;-54
2023/07/18 07:03:23;;;;;;;3.87;2.00;;;21.90;1.00;;;;;;5133328;27;20187;-52
2023/07/18 07:05:49;;;;;;;3.10;2.17;;;22.10;1.00;;;;;;5134542;27;20171;-53
2023/07/18 07:08:18;;;;;;;2.70;2.10;;;22.30;1.00;;;;;;5133800;27;20182;-51
2023/07/18 07:10:44;;;;;;;4.73;2.00;;;22.40;1.00;;;;;;5132867;27;20429;-52
2023/07/18 07:13:10;;;;;;;4.23;2.30;;;22.60;1.00;;;;;;5133097;27;20715;-55
2023/07/18 07:15:36;;;;;;;3.40;2.10;;;22.80;1.00;;;;;;5134330;27;20774;-53
2023/07/18 07:18:03;;;;;;;3.37;2.20;;;23.00;1.00;;;;;;5134744;27;20416;-55
2023/07/18 07:20:30;;;;;;;4.30;2.23;;;23.20;1.00;;;;;;5134340;27;20895;-54
2023/07/18 07:22:57;;;;;;;5.90;2.40;;;23.50;1.00;;;;;;5132749;27;20505;-52
2023/07/18 07:25:26;;;;;;;3.87;2.27;;;23.70;1.00;;;;;;5134298;27;20424;-51
2023/07/18 07:27:51;;;;;;;4.27;2.00;;;23.90;1.00;;;;;;5133894;27;20443;-53
2023/07/18 07:30:17;;;;;;;3.87;2.07;;;24.00;1.00;;;;;;5135390;27;20408;-51
2023/07/18 07:32:51;;;;;;;3.87;2.00;;;24.10;1.00;;;;;;5135612;27;20560;-55
2023/07/18 07:35:18;;;;;;;2.83;1.97;;;24.20;1.00;;;;;;5132684;27;20205;-51
2023/07/18 07:37:44;;;;;;;3.63;2.03;;;24.50;1.00;;;;;;5131550;27;20485;-52
2023/07/18 07:40:11;;;;;;;2.63;2.33;;;24.70;1.00;;;;;;5133382;27;20499;-52
2023/07/18 07:42:42;;;;;;;3.03;2.00;;;24.80;1.00;;;;;;5133754;27;20492;-55
2023/07/18 07:45:08;;;;;;;4.23;2.37;;;24.90;1.00;;;;;;5134513;27;20409;-52
2023/07/18 07:47:35;;;;;;;2.83;2.03;;;25.20;1.00;;;;;;5134958;27;20432;-51
2023/07/18 07:50:01;;;;;;;4.93;2.40;;;25.40;1.00;;;;;;5135485;27;20432;-51
2023/07/18 07:52:28;;;;;;;3.83;2.80;;;25.60;1.00;;;;;;5134426;27;20421;-54
2023/07/18 07:54:54;;;;;;;4.90;2.80;;;25.90;1.00;;;;;;5135029;27;20178;-54
2023/07/18 07:57:20;;;;;;;2.50;1.87;;;26.20;1.00;;;;;;5132185;27;20413;-52
2023/07/18 07:59:45;;;;;;;4.73;2.80;;;26.30;1.00;;;;;;5132760;27;20464;-54
2023/07/18 08:02:13;;;;;;;2.87;2.00;;;26.30;1.00;;;;;;5132878;27;20729;-54
2023/07/18 08:04:39;;;;;;;6.20;2.37;;;26.40;1.00;;;;;;5132733;27;20171;-55
2023/07/18 08:07:05;;;;;;;3.23;2.80;;;26.70;1.00;;;;;;5133212;27;20420;-53
2023/07/18 08:09:31;;;;;;;7.03;2.57;;;27.00;1.00;;;;;;5133635;27;20659;-52
2023/07/18 08:11:57;;;;;;;4.20;2.53;;;27.20;1.00;;;;;;5132918;27;20462;-51
2023/07/18 08:14:22;;;;;;;2.70;2.33;;;27.30;1.00;;;;;;5133931;27;20453;-52
2023/07/18 08:16:49;;;;;;;5.93;2.70;;;27.40;1.00;;;;;;5135757;28;20428;-55
2023/07/18 08:19:15;;;;;;;3.70;2.43;;;27.50;1.00;;;;;;5134713;28;20207;-54
2023/07/18 08:21:41;;;;;;;4.00;2.30;;;27.60;1.00;;;;;;5133494;28;20428;-50
2023/07/18 08:24:06;;;;;;;4.80;2.57;;;27.30;1.00;;;;;;5133902;28;20434;-50
2023/07/18 08:26:32;;;;;;;4.13;2.63;;;27.20;1.00;;;;;;5132039;28;20691;-58
2023/07/18 08:28:58;;;;;;;3.60;2.20;;;27.10;1.00;;;;;;5130428;28;20171;-51
2023/07/18 08:31:24;;;;;;;4.27;2.67;;;27.10;1.00;;;;;;5131896;28;20312;-52
2023/07/18 08:33:49;;;;;;;3.57;2.50;;;27.00;1.00;;;;;;5131683;28;20198;-52
2023/07/18 08:36:15;;;;;;;2.10;1.60;;;27.10;1.00;;;;;;5132381;28;20441;-55
2023/07/18 08:38:46;;;;;;;3.40;1.87;;;27.00;1.00;;;;;;5132282;28;20209;-51
2023/07/18 08:41:12;;;;;;;3.70;2.37;;;26.80;1.00;;;;;;5133170;28;20183;-51
2023/07/18 08:43:38;;;;;;;2.73;2.07;;;27.00;1.00;;;;;;5113967;28;20532;-52
2023/07/18 08:46:04;;;;;;;4.63;2.73;;;27.30;1.00;;;;;;5131541;28;20426;-52
2023/07/18 08:48:31;;;;;;;4.07;3.30;;;27.40;1.00;;;;;;5134187;28;20467;-53
2023/07/18 08:50:59;;;;;;;5.10;2.97;;;27.40;1.00;;;;;;5134575;28;20413;-54
2023/07/18 08:53:25;;;;;;;4.50;2.40;;;27.10;1.00;;;;;;5135536;28;20419;-53
2023/07/18 08:55:51;;;;;;;4.73;2.70;;;27.20;1.00;;;;;;5135279;28;20852;-52
2023/07/18 08:58:23;;;;;;;3.67;2.50;;;27.20;1.00;;;;;;5116785;28;20257;-54
2023/07/18 09:00:49;;;;;;;3.90;2.73;;;27.50;1.00;;;;;;5117738;28;20650;-51
2023/07/18 09:03:14;;;;;;;6.10;3.10;;;27.70;1.00;;;;;;5135524;28;20495;-52
2023/07/18 09:05:40;;;;;;;4.07;2.97;;;27.80;1.00;;;;;;5135733;27;20183;-55
2023/07/18 09:08:06;;;;;;;6.30;2.70;;;27.80;1.00;;;;;;5139767;27;20262;-54
2023/07/18 09:10:33;;;;;;;2.90;2.40;;;27.70;1.00;;;;;;5136517;27;20179;-54
2023/07/18 09:13:03;;;;;;;4.87;3.40;;;27.70;1.00;;;;;;5137426;27;20428;-54
2023/07/18 09:15:30;;;;;;;4.07;3.67;;;27.90;1.00;;;;;;5138565;27;20408;-53
2023/07/18 09:17:59;;;;;;;3.30;2.77;;;28.20;1.00;;;;;;5113116;28;20756;-52
2023/07/18 09:20:26;;;;;;;4.40;3.10;;;28.60;1.00;;;;;;5131880;27;20493;-53
2023/07/18 09:22:59;;;;;;;3.70;3.17;;;28.80;1.00;;;;;;5136979;27;20917;-56
2023/07/18 09:25:26;;;;;;;3.23;2.93;;;28.70;1.00;;;;;;5120950;27;20424;-52
2023/07/18 09:27:52;;;;;;;4.10;2.83;;;28.70;1.00;;;;;;5117764;27;20516;-55
2023/07/18 09:30:37;;;;;;;3.93;3.17;;;29.10;1.00;;;;;;5117298;27;20406;-54
2023/07/18 09:33:04;;;;;;;6.50;3.10;;;29.30;1.00;;;;;;5115831;27;20750;-53
2023/07/18 09:35:30;;;;;;;4.60;2.80;;;29.60;1.00;;;;;;5122621;27;20432;-56
2023/07/18 09:37:57;;;;;;;4.87;3.60;;;29.90;1.00;;;;;;5116072;27;20478;-52
2023/07/18 09:40:23;;;;;;;4.00;3.50;;;30.00;1.00;;;;;;5131086;27;20436;-53
2023/07/18 09:42:49;;;;;;;4.30;3.60;;;29.90;1.00;;;;;;5134595;27;20710;-54
2023/07/18 09:45:16;;;;;;;4.20;3.40;;;29.60;1.00;;;;;;5135569;27;20177;-54
2023/07/18 09:47:43;;;;;;;4.50;3.57;;;29.60;1.00;;;;;;5117331;27;20421;-53
2023/07/18 09:50:10;;;;;;;4.40;3.90;;;29.80;1.00;;;;;;5135285;27;20446;-55
2023/07/18 09:52:40;;;;;;;4.50;3.53;;;30.00;1.00;;;;;;5125015;27;20922;-55
2023/07/18 09:55:11;;;;;;;4.90;3.60;;;30.40;1.00;;;;;;5116224;27;20512;-52
2023/07/18 09:57:41;;;;;;;4.17;3.30;;;30.60;1.00;;;;;;5112102;27;20410;-54
2023/07/18 10:00:11;;;;;;;7.37;3.77;;;30.70;1.00;;;;;;5103481;27;20908;-53
2023/07/18 10:02:40;;;;;;;4.00;3.40;;;30.00;1.00;;;;;;5112550;27;20404;-55
2023/07/18 10:05:10;;;;;;;5.13;3.70;;;29.60;1.00;;;;;;5125727;27;20613;-56
2023/07/18 10:07:38;;;;;;;3.57;3.20;;;29.30;1.00;;;;;;5117901;27;20581;-56
2023/07/18 10:10:07;;;;;;;4.70;3.00;;;28.90;1.00;;;;;;5117875;27;20734;-52
2023/07/18 10:12:36;;;;;;;4.00;3.60;;;28.40;1.00;;;;;;5113306;28;20413;-55
2023/07/18 10:15:05;;;;;;;4.07;3.67;;;27.80;1.00;;;;;;5115053;28;20416;-53
2023/07/18 10:17:39;;;;;;;5.27;3.53;;;27.30;1.00;;;;;;5111906;28;20421;-55
2023/07/18 10:20:11;;;;;;;4.53;3.90;;;27.00;1.00;;;;;;5113229;28;21094;-55
2023/07/18 10:22:38;;;;;;;4.03;3.30;;;26.60;1.00;;;;;;5112704;28;20418;-54
2023/07/18 10:25:08;;;;;;;5.27;3.80;;;26.20;1.00;;;;;;5094770;28;20453;-53
2023/07/18 10:27:37;;;;;;;4.10;3.30;;;25.80;1.00;;;;;;5112343;28;20549;-54
2023/07/18 10:30:11;;;;;;;4.93;3.97;;;25.60;1.00;;;;;;5112111;28;20831;-50
2023/07/18 10:32:38;;;;;;;4.03;3.50;;;25.50;1.00;;;;;;5111051;28;20492;-54
2023/07/18 10:35:11;;;;;;;5.67;3.90;;;25.60;1.00;;;;;;5112901;28;20426;-50
2023/07/18 10:37:37;;;;;;;7.00;3.60;;;25.70;1.00;;;;;;5113350;28;20426;-50
2023/07/18 10:40:05;;;;;;;4.10;3.70;;;25.90;1.00;;;;;;5094863;28;20545;-50
2023/07/18 10:42:34;;;;;;;5.00;3.30;;;26.10;1.00;;;;;;5093879;28;20448;-53
2023/07/18 10:45:05;;;;;;;4.93;3.83;;;26.30;1.00;;;;;;5111610;28;20505;-55
2023/07/18 10:47:32;;;;;;;4.27;3.80;;;26.60;1.00;;;;;;5112550;28;20409;-51
2023/07/18 10:49:58;;;;;;;4.13;3.70;;;27.10;1.00;;;;;;5093638;28;20910;-53
2023/07/18 10:52:24;;;;;;;5.00;4.07;;;27.70;1.00;;;;;;5112710;28;20417;-52
2023/07/18 10:54:55;;;;;;;5.70;3.60;;;28.00;1.00;;;;;;5112958;28;20478;-53
2023/07/18 10:57:25;;;;;;;4.67;3.60;;;28.30;1.00;;;;;;5113628;28;20456;-55
2023/07/18 10:59:52;;;;;;;4.60;4.20;;;28.50;1.00;;;;;;5109827;28;20477;-55
2023/07/18 11:02:19;;;;;;;4.80;3.70;;;28.20;1.00;;;;;;5112186;28;20417;-54
2023/07/18 11:04:46;;;;;;;5.07;3.90;;;28.30;1.00;;;;;;5112134;28;20524;-53
2023/07/18 11:07:11;;;;;;;4.43;4.00;;;28.00;1.00;;;;;;5112530;28;20524;-54
2023/07/18 11:09:37;;;;;;;5.83;3.97;;;27.80;1.00;;;;;;5110098;28;20784;-50
2023/07/18 11:12:04;;;;;;;4.10;3.43;;;27.50;1.00;;;;;;5111012;28;20534;-55
2023/07/18 11:14:41;;;;;;;4.73;4.17;;;27.30;1.00;;;;;;5109521;28;20228;-55
2023/07/18 11:17:12;;;;;;;4.53;3.80;;;26.80;1.00;;;;;;5112423;28;20449;-53
2023/07/18 11:19:38;;;;;;;5.17;4.43;;;26.60;1.00;;;;;;5112132;28;20469;-52
2023/07/18 11:22:04;;;;;;;6.50;4.17;;;26.20;1.00;;;;;;5093152;28;20799;-56
2023/07/18 11:24:30;;;;;;;5.60;4.70;;;26.00;1.00;;;;;;5111889;28;20387;-54
2023/07/18 11:27:15;;;;;;;5.60;4.67;;;25.60;1.00;;;;;;5091793;28;20409;-51
2023/07/18 11:30:09;;;;;;;5.10;4.37;;;25.30;1.00;;;;;;5093091;28;20210;-54
2023/07/18 11:32:39;;;;;;;6.67;4.00;;;25.10;1.00;;;;;;5108606;28;20749;-54
2023/07/18 11:35:10;;;;;;;5.03;4.20;;;24.90;1.00;;;;;;5110884;28;20816;-55
2023/07/18 11:37:38;;;;;;;5.97;3.80;;;24.70;1.00;;;;;;5108983;28;20435;-52
2023/07/18 11:40:05;;;;;;;4.87;4.43;;;24.40;1.00;;;;;;5110557;28;20503;-54
2023/07/18 11:42:55;;;;;;;6.00;5.40;;;24.30;1.00;;;;;;5110036;28;20699;-52
2023/07/18 11:45:22;;;;;;;6.10;4.70;;;24.10;1.00;;;;;;5111309;28;20466;-55
2023/07/18 11:47:51;;;;;;;6.83;4.70;;;23.90;1.00;;;;;;5112501;28;20417;-53
2023/07/18 11:50:17;;;;;;;6.53;4.10;;;23.80;1.00;;;;;;5111853;28;20458;-50
2023/07/18 11:52:48;;;;;;;5.30;4.80;;;23.60;1.00;;;;;;5111499;28;20553;-54
2023/07/18 11:55:18;;;;;;;5.03;3.70;;;23.60;1.00;;;;;;5091855;28;20533;-52
2023/07/18 11:57:44;;;;;;;5.67;4.27;;;23.70;1.00;;;;;;5108954;28;20490;-52
2023/07/18 12:00:11;;;;;;;6.20;4.60;;;23.80;1.00;;;;;;5092584;28;20461;-52
2023/07/18 12:02:37;;;;;;;4.50;4.10;;;23.80;1.00;;;;;;5093788;28;20421;-51
2023/07/18 12:05:06;;;;;;;4.23;3.83;;;24.00;1.00;;;;;;5092895;28;20422;-56
2023/07/18 12:07:33;;;;;;;4.67;4.10;;;24.00;1.00;;;;;;5109955;28;20853;-54
2023/07/18 12:09:59;;;;;;;4.30;3.93;;;24.10;1.00;;;;;;5110333;28;20433;-51
2023/07/18 12:12:24;;;;;;;6.27;3.70;;;24.10;1.00;;;;;;5110709;28;20428;-51
2023/07/18 12:14:51;;;;;;;4.67;4.13;;;24.20;1.00;;;;;;5112593;28;20449;-54
2023/07/18 12:17:17;;;;;;;6.93;4.40;;;24.30;1.00;;;;;;5112299;28;20657;-51
2023/07/18 12:19:44;;;;;;;4.40;4.00;;;24.50;1.00;;;;;;5112010;28;20473;-55
2023/07/18 12:22:10;;;;;;;7.53;5.10;;;24.70;1.00;;;;;;5075520;28;20932;-53
2023/07/18 12:24:35;;;;;;;4.43;3.77;;;24.90;1.00;;;;;;5108861;28;20554;-51
2023/07/18 12:27:01;;;;;;;5.03;4.50;;;25.10;1.00;;;;;;5112725;28;20418;-52
2023/07/18 12:29:26;;;;;;;5.20;4.70;;;25.40;1.00;;;;;;5112874;28;20245;-51
2023/07/18 12:31:53;;;;;;;4.73;4.30;;;25.70;1.00;;;;;;5113348;28;20195;-52
2023/07/18 12:34:19;;;;;;;5.33;4.83;;;26.00;1.00;;;;;;5114637;28;20171;-52
2023/07/18 12:36:45;;;;;;;4.17;3.87;;;26.30;1.00;;;;;;5113969;28;20425;-54
2023/07/18 12:39:15;;;;;;;4.57;4.17;;;26.60;1.00;;;;;;5111321;28;20473;-53
2023/07/18 12:41:42;;;;;;;4.80;4.30;;;27.00;1.00;;;;;;5113680;28;20432;-55
2023/07/18 12:44:08;;;;;;;6.80;4.33;;;27.30;1.00;;;;;;5098210;28;20845;-52
2023/07/18 12:46:34;;;;;;;7.37;4.17;;;27.60;1.00;;;;;;5094461;28;20433;-56
2023/07/18 12:49:00;;;;;;;5.43;4.83;;;28.00;1.00;;;;;;5097089;28;20515;-53
2023/07/18 12:51:26;;;;;;;6.57;4.43;;;28.30;1.00;;;;;;5114393;28;20413;-55